sensor_id;sensor_type;location;lat;lon;timestamp;pressure;altitude;pressure_sealevel;temperature;humidity
5238;BME280;2639;49.700;7.962;2022-10-16T07:06:25;98673.50;;;15.14;100.00
5238;BME280;2639;49.700;7.962;2022-10-16T07:12:43;98675.63;;;15.21;100.00
5238;BME280;2639;49.700;7.962;2022-10-16T07:15:55;98684.53;;;15.26;100.00
5238;BME280;2639;49.700;7.962;2022-10-16T07:19:08;98677.91;;;15.31;100.00
5238;BME280;2639;49.700;7.962;2022-10-16T07:22:24;98688.44;;;15.34;100.00
5238;BME280;2639;49.700;7.962;2022-10-16T07:25:34;98694.13;;;15.44;100.00
5238;BME280;2639;49.700;7.962;2022-10-16T07:28:44;98701.41;;;15.51;100.00
5238;BME280;2639;49.700;7.962;2022-10-16T07:31:54;98698.97;;;15.54;100.00
5238;BME280;2639;49.700;7.962;2022-10-16T07:35:06;98696.78;;;15.62;100.00
5238;BME280;2639;49.700;7.962;2022-10-16T07:38:18;98706.50;;;15.66;100.00
5238;BME280;2639;49.700;7.962;2022-10-16T07:44:36;98729.34;;;15.73;100.00
5238;BME280;2639;49.700;7.962;2022-10-16T07:47:49;98753.56;;;15.73;100.00
5238;BME280;2639;49.700;7.962;2022-10-16T07:50:59;98748.41;;;15.73;100.00
5238;BME280;2639;49.700;7.962;2022-10-16T07:54:10;98734.53;;;15.73;100.00
5238;BME280;2639;49.700;7.962;2022-10-16T07:57:20;98744.34;;;15.78;100.00
5238;BME280;2639;49.700;7.962;2022-10-16T08:00:33;98757.78;;;15.88;100.00
5238;BME280;2639;49.700;7.962;2022-10-16T08:03:47;98748.72;;;15.96;100.00
5238;BME280;2639;49.700;7.962;2022-10-16T08:06:57;98761.19;;;16.03;100.00
5238;BME280;2639;49.700;7.962;2022-10-16T08:10:15;98764.09;;;16.09;100.00
5238;BME280;2639;49.700;7.962;2022-10-16T08:13:26;98758.59;;;16.19;100.00
5238;BME280;2639;49.700;7.962;2022-10-16T08:16:38;98767.81;;;16.31;100.00
5238;BME280;2639;49.700;7.962;2022-10-16T08:19:47;98768.47;;;16.43;100.00
5238;BME280;2639;49.700;7.962;2022-10-16T08:23:00;98776.06;;;16.56;100.00
5238;BME280;2639;49.700;7.962;2022-10-16T08:26:12;98781.88;;;16.69;100.00
5238;BME280;2639;49.700;7.962;2022-10-16T08:29:27;98778.78;;;16.76;100.00
5238;BME280;2639;49.700;7.962;2022-10-16T08:32:37;98783.50;;;16.83;100.00
5238;BME280;2639;49.700;7.962;2022-10-16T08:35:50;98788.53;;;16.80;100.00
5238;BME280;2639;49.700;7.962;2022-10-16T08:39:02;98794.69;;;16.82;100.00
5238;BME280;2639;49.700;7.962;2022-10-16T08:42:23;98796.47;;;16.83;100.00
5238;BME280;2639;49.700;7.962;2022-10-16T08:46:03;98802.63;;;16.85;100.00
5238;BME280;2639;49.700;7.962;2022-10-16T08:49:19;98795.16;;;16.91;100.00
5238;BME280;2639;49.700;7.962;2022-10-16T08:52:31;98790.75;;;17.07;100.00
5238;BME280;2639;49.700;7.962;2022-10-16T08:55:49;98792.97;;;17.17;100.00
5238;BME280;2639;49.700;7.962;2022-10-16T08:59:01;98783.34;;;17.32;100.00
5238;BME280;2639;49.700;7.962;2022-10-16T09:02:23;98799.34;;;17.41;100.00
5238;BME280;2639;49.700;7.962;2022-10-16T09:05:48;98792.50;;;17.61;100.00
5238;BME280;2639;49.700;7.962;2022-10-16T09:09:13;98798.81;;;17.84;100.00
5238;BME280;2639;49.700;7.962;2022-10-16T09:12:33;98806.34;;;18.16;100.00
5238;BME280;2639;49.700;7.962;2022-10-16T09:15:53;98811.53;;;18.35;100.00
5238;BME280;2639;49.700;7.962;2022-10-16T09:19:13;98812.72;;;18.61;100.00
5238;BME280;2639;49.700;7.962;2022-10-16T09:22:28;98820.28;;;18.76;100.00
5238;BME280;2639;49.700;7.962;2022-10-16T09:25:39;98826.94;;;18.69;100.00
5238;BME280;2639;49.700;7.962;2022-10-16T09:29:00;98831.44;;;18.74;100.00
5238;BME280;2639;49.700;7.962;2022-10-16T09:32:14;98828.00;;;18.75;100.00
5238;BME280;2639;49.700;7.962;2022-10-16T09:35:32;98835.16;;;18.79;100.00
5238;BME280;2639;49.700;7.962;2022-10-16T09:38:47;98849.41;;;18.87;100.00
5238;BME280;2639;49.700;7.962;2022-10-16T09:41:58;98854.75;;;18.90;100.00
5238;BME280;2639;49.700;7.962;2022-10-16T09:45:21;98850.41;;;18.90;100.00
5238;BME280;2639;49.700;7.962;2022-10-16T09:48:36;98860.22;;;18.96;100.00
5238;BME280;2639;49.700;7.962;2022-10-16T09:51:47;98857.63;;;18.96;100.00
5238;BME280;2639;49.700;7.962;2022-10-16T09:54:58;98869.13;;;19.01;100.00
5238;BME280;2639;49.700;7.962;2022-10-16T09:58:17;98865.28;;;18.93;100.00
5238;BME280;2639;49.700;7.962;2022-10-16T10:01:36;98860.81;;;18.90;100.00
5238;BME280;2639;49.700;7.962;2022-10-16T10:04:50;98868.84;;;18.95;100.00
5238;BME280;2639;49.700;7.962;2022-10-16T10:08:03;98863.72;;;18.97;100.00
5238;BME280;2639;49.700;7.962;2022-10-16T10:11:14;98876.22;;;19.05;100.00
5238;BME280;2639;49.700;7.962;2022-10-16T10:14:31;98870.28;;;19.08;100.00
5238;BME280;2639;49.700;7.962;2022-10-16T10:17:46;98874.94;;;19.17;100.00
5238;BME280;2639;49.700;7.962;2022-10-16T10:20:58;98872.75;;;19.26;100.00
5238;BME280;2639;49.700;7.962;2022-10-16T10:24:13;98875.22;;;19.23;100.00
5238;BME280;2639;49.700;7.962;2022-10-16T10:27:37;98863.16;;;19.25;100.00
5238;BME280;2639;49.700;7.962;2022-10-16T10:30:54;98870.41;;;19.32;100.00
5238;BME280;2639;49.700;7.962;2022-10-16T10:34:32;98860.00;;;19.32;100.00
5238;BME280;2639;49.700;7.962;2022-10-16T10:38:00;98869.34;;;19.27;100.00
5238;BME280;2639;49.700;7.962;2022-10-16T10:41:26;98880.50;;;19.24;100.00
5238;BME280;2639;49.700;7.962;2022-10-16T10:44:53;98878.88;;;19.07;100.00
5238;BME280;2639;49.700;7.962;2022-10-16T10:48:17;98872.16;;;19.12;100.00
5238;BME280;2639;49.700;7.962;2022-10-16T10:51:42;98882.28;;;18.85;100.00
5238;BME280;2639;49.700;7.962;2022-10-16T10:54:59;98878.97;;;18.89;100.00
5238;BME280;2639;49.700;7.962;2022-10-16T10:58:21;98881.44;;;19.05;100.00
5238;BME280;2639;49.700;7.962;2022-10-16T11:01:47;98878.41;;;19.16;100.00
5238;BME280;2639;49.700;7.962;2022-10-16T11:05:14;98882.75;;;19.17;100.00
5238;BME280;2639;49.700;7.962;2022-10-16T11:08:29;98873.50;;;19.44;100.00
5238;BME280;2639;49.700;7.962;2022-10-16T11:11:49;98873.66;;;19.47;100.00
5238;BME280;2639;49.700;7.962;2022-10-16T11:15:04;98867.50;;;19.66;100.00
5238;BME280;2639;49.700;7.962;2022-10-16T11:18:20;98870.44;;;19.74;100.00
5238;BME280;2639;49.700;7.962;2022-10-16T11:21:39;98877.16;;;19.90;100.00
5238;BME280;2639;49.700;7.962;2022-10-16T11:24:58;98866.78;;;19.91;100.00
5238;BME280;2639;49.700;7.962;2022-10-16T11:28:14;98868.19;;;19.83;100.00
5238;BME280;2639;49.700;7.962;2022-10-16T11:34:37;98858.25;;;19.95;100.00
5238;BME280;2639;49.700;7.962;2022-10-16T11:37:50;98858.00;;;20.34;100.00
5238;BME280;2639;49.700;7.962;2022-10-16T11:41:11;98850.22;;;20.83;100.00
5238;BME280;2639;49.700;7.962;2022-10-16T11:44:38;98853.59;;;21.30;99.10
5238;BME280;2639;49.700;7.962;2022-10-16T11:47:58;98845.63;;;22.06;97.14
5238;BME280;2639;49.700;7.962;2022-10-16T11:51:15;98846.34;;;22.58;88.02
5238;BME280;2639;49.700;7.962;2022-10-16T11:54:32;98855.97;;;22.02;87.07
5238;BME280;2639;49.700;7.962;2022-10-16T11:57:48;98852.38;;;21.44;91.13
5238;BME280;2639;49.700;7.962;2022-10-16T12:01:10;98861.13;;;21.46;96.55
5238;BME280;2639;49.700;7.962;2022-10-16T12:04:31;98854.34;;;22.05;92.60
5238;BME280;2639;49.700;7.962;2022-10-16T12:07:51;98844.81;;;22.36;86.28
5238;BME280;2639;49.700;7.962;2022-10-16T12:11:08;98846.38;;;22.30;87.71
5238;BME280;2639;49.700;7.962;2022-10-16T12:14:36;98850.50;;;21.94;87.01
5238;BME280;2639;49.700;7.962;2022-10-16T12:18:20;98856.38;;;21.87;90.25
5238;BME280;2639;49.700;7.962;2022-10-16T12:21:31;98861.25;;;22.03;88.63
5238;BME280;2639;49.700;7.962;2022-10-16T12:24:42;98854.78;;;21.92;90.88
5238;BME280;2639;49.700;7.962;2022-10-16T12:27:56;98859.28;;;21.96;93.16
5238;BME280;2639;49.700;7.962;2022-10-16T12:31:07;98854.50;;;22.12;90.94
5238;BME280;2639;49.700;7.962;2022-10-16T12:34:28;98835.88;;;22.28;89.64
5238;BME280;2639;49.700;7.962;2022-10-16T12:37:39;98828.19;;;22.34;87.86
5238;BME280;2639;49.700;7.962;2022-10-16T12:40:57;98830.34;;;22.20;88.85
5238;BME280;2639;49.700;7.962;2022-10-16T12:44:21;98819.19;;;21.97;89.04
5238;BME280;2639;49.700;7.962;2022-10-16T12:47:38;98830.72;;;21.48;89.37
5238;BME280;2639;49.700;7.962;2022-10-16T12:50:51;98834.69;;;21.37;92.96
5238;BME280;2639;49.700;7.962;2022-10-16T12:54:01;98843.16;;;21.30;95.65
5238;BME280;2639;49.700;7.962;2022-10-16T12:57:30;98844.16;;;21.33;95.64
5238;BME280;2639;49.700;7.962;2022-10-16T13:00:56;98851.94;;;21.32;96.92
5238;BME280;2639;49.700;7.962;2022-10-16T13:04:25;98858.63;;;21.23;97.38
5238;BME280;2639;49.700;7.962;2022-10-16T13:07:50;98871.22;;;21.10;97.43
5238;BME280;2639;49.700;7.962;2022-10-16T13:11:08;98860.31;;;20.97;99.24
5238;BME280;2639;49.700;7.962;2022-10-16T13:14:32;98833.63;;;20.80;100.00
5238;BME280;2639;49.700;7.962;2022-10-16T13:17:53;98844.59;;;20.70;100.00
5238;BME280;2639;49.700;7.962;2022-10-16T13:21:20;98856.56;;;20.65;100.00
5238;BME280;2639;49.700;7.962;2022-10-16T13:24:46;98857.34;;;20.63;100.00
5238;BME280;2639;49.700;7.962;2022-10-16T13:28:00;98858.00;;;20.57;100.00
5238;BME280;2639;49.700;7.962;2022-10-16T13:31:15;98871.50;;;20.47;100.00
5238;BME280;2639;49.700;7.962;2022-10-16T13:34:26;98867.13;;;20.46;100.00
5238;BME280;2639;49.700;7.962;2022-10-16T13:37:37;98867.78;;;20.63;100.00
5238;BME280;2639;49.700;7.962;2022-10-16T13:40:54;98864.34;;;20.88;100.00
5238;BME280;2639;49.700;7.962;2022-10-16T13:44:05;98855.38;;;21.05;100.00
5238;BME280;2639;49.700;7.962;2022-10-16T13:47:24;98855.72;;;21.14;100.00
5238;BME280;2639;49.700;7.962;2022-10-16T13:50:38;98848.91;;;21.19;100.00
5238;BME280;2639;49.700;7.962;2022-10-16T13:53:51;98848.06;;;21.20;100.00
5238;BME280;2639;49.700;7.962;2022-10-16T13:57:06;98845.34;;;21.17;100.00
5238;BME280;2639;49.700;7.962;2022-10-16T14:00:34;98844.50;;;21.18;100.00
5238;BME280;2639;49.700;7.962;2022-10-16T14:03:47;98853.19;;;21.17;100.00
5238;BME280;2639;49.700;7.962;2022-10-16T14:06:57;98847.97;;;21.17;100.00
5238;BME280;2639;49.700;7.962;2022-10-16T14:10:21;98851.41;;;21.16;100.00
5238;BME280;2639;49.700;7.962;2022-10-16T14:13:40;98857.47;;;21.15;100.00
5238;BME280;2639;49.700;7.962;2022-10-16T14:16:52;98856.63;;;21.16;100.00
5238;BME280;2639;49.700;7.962;2022-10-16T14:20:05;98863.72;;;21.20;100.00
5238;BME280;2639;49.700;7.962;2022-10-16T14:23:23;98862.06;;;21.22;100.00
5238;BME280;2639;49.700;7.962;2022-10-16T14:26:43;98858.50;;;21.20;100.00
5238;BME280;2639;49.700;7.962;2022-10-16T14:30:12;98861.84;;;21.16;100.00
5238;BME280;2639;49.700;7.962;2022-10-16T14:33:25;98860.44;;;21.00;100.00
5238;BME280;2639;49.700;7.962;2022-10-16T14:36:41;98859.53;;;21.00;100.00
5238;BME280;2639;49.700;7.962;2022-10-16T14:39:55;98862.13;;;20.98;100.00
5238;BME280;2639;49.700;7.962;2022-10-16T14:43:05;98858.66;;;20.99;100.00
5238;BME280;2639;49.700;7.962;2022-10-16T14:46:19;98866.56;;;21.01;100.00
5238;BME280;2639;49.700;7.962;2022-10-16T14:49:29;98859.66;;;21.03;100.00
5238;BME280;2639;49.700;7.962;2022-10-16T14:52:42;98869.34;;;21.07;100.00
5238;BME280;2639;49.700;7.962;2022-10-16T14:55:52;98870.31;;;21.09;100.00
5238;BME280;2639;49.700;7.962;2022-10-16T14:59:12;98866.88;;;21.10;100.00
5238;BME280;2639;49.700;7.962;2022-10-16T15:02:29;98875.66;;;21.12;100.00
5238;BME280;2639;49.700;7.962;2022-10-16T15:05:39;98884.22;;;21.08;100.00
5238;BME280;2639;49.700;7.962;2022-10-16T15:08:49;98878.81;;;21.04;100.00
5238;BME280;2639;49.700;7.962;2022-10-16T15:11:58;98878.50;;;20.94;100.00
5238;BME280;2639;49.700;7.962;2022-10-16T15:15:23;98883.44;;;20.87;100.00
5238;BME280;2639;49.700;7.962;2022-10-16T15:18:35;98885.75;;;20.79;100.00
5238;BME280;2639;49.700;7.962;2022-10-16T15:21:45;98883.75;;;20.72;100.00
5238;BME280;2639;49.700;7.962;2022-10-16T15:24:55;98878.97;;;20.60;100.00
5238;BME280;2639;49.700;7.962;2022-10-16T15:28:05;98881.38;;;20.55;100.00
5238;BME280;2639;49.700;7.962;2022-10-16T15:31:15;98876.84;;;20.50;100.00
5238;BME280;2639;49.700;7.962;2022-10-16T15:34:29;98882.84;;;20.47;100.00
5238;BME280;2639;49.700;7.962;2022-10-16T15:37:39;98871.38;;;20.44;100.00
5238;BME280;2639;49.700;7.962;2022-10-16T15:40:49;98869.50;;;20.39;100.00
5238;BME280;2639;49.700;7.962;2022-10-16T15:43:59;98879.72;;;20.33;100.00
5238;BME280;2639;49.700;7.962;2022-10-16T15:47:09;98882.25;;;20.32;100.00
5238;BME280;2639;49.700;7.962;2022-10-16T15:50:22;98883.84;;;20.28;100.00
5238;BME280;2639;49.700;7.962;2022-10-16T15:53:40;98877.69;;;20.26;100.00
5238;BME280;2639;49.700;7.962;2022-10-16T15:56:51;98884.44;;;20.21;100.00
5238;BME280;2639;49.700;7.962;2022-10-16T16:00:04;98886.88;;;20.16;100.00
5238;BME280;2639;49.700;7.962;2022-10-16T16:03:19;98884.84;;;20.09;100.00
5238;BME280;2639;49.700;7.962;2022-10-16T16:06:30;98889.84;;;20.03;100.00
5238;BME280;2639;49.700;7.962;2022-10-16T16:09:40;98891.31;;;19.96;100.00
5238;BME280;2639;49.700;7.962;2022-10-16T16:12:50;98888.34;;;19.87;100.00
5238;BME280;2639;49.700;7.962;2022-10-16T16:16:05;98896.66;;;19.79;100.00
5238;BME280;2639;49.700;7.962;2022-10-16T16:19:16;98898.00;;;19.69;100.00
5238;BME280;2639;49.700;7.962;2022-10-16T16:22:38;98901.16;;;19.62;100.00
5238;BME280;2639;49.700;7.962;2022-10-16T16:26:02;98907.63;;;19.50;100.00
5238;BME280;2639;49.700;7.962;2022-10-16T16:29:13;98900.41;;;19.43;100.00
5238;BME280;2639;49.700;7.962;2022-10-16T16:32:24;98902.69;;;19.36;100.00
5238;BME280;2639;49.700;7.962;2022-10-16T16:35:36;98892.75;;;19.27;100.00
5238;BME280;2639;49.700;7.962;2022-10-16T16:38:50;98897.56;;;19.18;100.00
5238;BME280;2639;49.700;7.962;2022-10-16T16:41:59;98902.25;;;19.05;100.00
5238;BME280;2639;49.700;7.962;2022-10-16T16:45:11;98899.25;;;18.96;100.00
5238;BME280;2639;49.700;7.962;2022-10-16T16:48:21;98892.81;;;18.88;100.00
5238;BME280;2639;49.700;7.962;2022-10-16T16:51:30;98897.72;;;18.82;100.00
5238;BME280;2639;49.700;7.962;2022-10-16T16:54:49;98898.19;;;18.73;100.00
5238;BME280;2639;49.700;7.962;2022-10-16T16:58:00;98903.03;;;18.65;100.00
5238;BME280;2639;49.700;7.962;2022-10-16T17:01:13;98912.97;;;18.55;100.00
5238;BME280;2639;49.700;7.962;2022-10-16T17:04:28;98927.09;;;18.42;100.00
5238;BME280;2639;49.700;7.962;2022-10-16T17:07:38;98919.72;;;18.32;100.00
5238;BME280;2639;49.700;7.962;2022-10-16T17:10:54;98919.09;;;18.19;100.00
5238;BME280;2639;49.700;7.962;2022-10-16T17:14:06;98932.50;;;18.09;100.00
5238;BME280;2639;49.700;7.962;2022-10-16T17:17:18;98935.63;;;18.02;100.00
5238;BME280;2639;49.700;7.962;2022-10-16T17:20:27;98938.66;;;17.93;100.00
5238;BME280;2639;49.700;7.962;2022-10-16T17:23:37;98936.50;;;17.84;100.00
5238;BME280;2639;49.700;7.962;2022-10-16T17:26:51;98947.13;;;17.73;100.00
5238;BME280;2639;49.700;7.962;2022-10-16T17:30:07;98954.41;;;17.62;100.00
5238;BME280;2639;49.700;7.962;2022-10-16T17:33:19;98958.31;;;17.54;100.00
5238;BME280;2639;49.700;7.962;2022-10-16T17:36:30;98970.09;;;17.47;100.00
5238;BME280;2639;49.700;7.962;2022-10-16T17:39:43;98964.59;;;17.41;100.00
5238;BME280;2639;49.700;7.962;2022-10-16T17:42:54;98971.09;;;17.33;100.00
5238;BME280;2639;49.700;7.962;2022-10-16T17:46:05;98975.25;;;17.29;100.00
5238;BME280;2639;49.700;7.962;2022-10-16T17:49:17;98974.94;;;17.23;100.00
5238;BME280;2639;49.700;7.962;2022-10-16T17:52:27;98971.34;;;17.21;100.00
5238;BME280;2639;49.700;7.962;2022-10-16T17:55:38;98970.97;;;17.13;100.00
5238;BME280;2639;49.700;7.962;2022-10-16T17:58:50;98972.50;;;17.10;100.00
5238;BME280;2639;49.700;7.962;2022-10-16T18:02:03;98979.41;;;16.93;100.00
5238;BME280;2639;49.700;7.962;2022-10-16T18:05:13;98990.16;;;16.84;100.00
5238;BME280;2639;49.700;7.962;2022-10-16T18:08:23;98989.63;;;16.75;100.00
5238;BME280;2639;49.700;7.962;2022-10-16T18:11:36;98990.25;;;16.71;100.00
5238;BME280;2639;49.700;7.962;2022-10-16T18:14:47;98983.16;;;16.67;100.00
5238;BME280;2639;49.700;7.962;2022-10-16T18:18:03;98988.09;;;16.62;100.00
5238;BME280;2639;49.700;7.962;2022-10-16T18:21:17;98989.44;;;16.55;100.00
5238;BME280;2639;49.700;7.962;2022-10-16T18:24:30;98996.34;;;16.55;100.00
5238;BME280;2639;49.700;7.962;2022-10-16T18:27:39;99002.78;;;16.47;100.00
5238;BME280;2639;49.700;7.962;2022-10-16T18:30:57;99006.41;;;16.34;100.00
5238;BME280;2639;49.700;7.962;2022-10-16T18:34:10;99004.09;;;16.24;100.00
5238;BME280;2639;49.700;7.962;2022-10-16T18:37:20;99012.31;;;16.16;100.00
5238;BME280;2639;49.700;7.962;2022-10-16T18:40:36;99010.34;;;16.12;100.00
5238;BME280;2639;49.700;7.962;2022-10-16T18:43:48;99001.59;;;16.10;100.00
5238;BME280;2639;49.700;7.962;2022-10-16T18:46:59;99003.13;;;16.07;100.00
5238;BME280;2639;49.700;7.962;2022-10-16T18:50:09;99009.66;;;16.00;100.00
5238;BME280;2639;49.700;7.962;2022-10-16T18:53:19;99000.75;;;15.95;100.00
5238;BME280;2639;49.700;7.962;2022-10-16T18:56:30;99015.91;;;15.89;100.00
5238;BME280;2639;49.700;7.962;2022-10-16T18:59:40;99013.41;;;15.75;100.00
5238;BME280;2639;49.700;7.962;2022-10-16T19:03:15;99005.47;;;15.72;100.00
5238;BME280;2639;49.700;7.962;2022-10-16T19:06:29;99013.75;;;15.67;100.00
5238;BME280;2639;49.700;7.962;2022-10-16T19:09:38;99015.09;;;15.60;100.00
5238;BME280;2639;49.700;7.962;2022-10-16T19:12:48;99015.53;;;15.53;100.00
5238;BME280;2639;49.700;7.962;2022-10-16T19:16:01;99018.56;;;15.46;100.00
5238;BME280;2639;49.700;7.962;2022-10-16T19:19:30;99027.53;;;15.38;100.00
5238;BME280;2639;49.700;7.962;2022-10-16T19:22:40;99031.91;;;15.39;100.00
5238;BME280;2639;49.700;7.962;2022-10-16T19:26:02;99033.69;;;15.40;100.00
5238;BME280;2639;49.700;7.962;2022-10-16T19:29:12;99040.09;;;15.31;100.00
5238;BME280;2639;49.700;7.962;2022-10-16T19:32:22;99040.91;;;15.30;100.00
5238;BME280;2639;49.700;7.962;2022-10-16T19:35:34;99050.44;;;15.31;100.00
5238;BME280;2639;49.700;7.962;2022-10-16T19:38:45;99046.91;;;15.29;100.00
5238;BME280;2639;49.700;7.962;2022-10-16T19:41:58;99049.28;;;15.26;100.00
5238;BME280;2639;49.700;7.962;2022-10-16T19:45:11;99044.91;;;15.25;100.00
5238;BME280;2639;49.700;7.962;2022-10-16T19:48:23;99051.84;;;15.26;100.00
5238;BME280;2639;49.700;7.962;2022-10-16T19:51:36;99062.03;;;15.23;100.00
5238;BME280;2639;49.700;7.962;2022-10-16T19:54:47;99054.88;;;15.19;100.00
5238;BME280;2639;49.700;7.962;2022-10-16T19:57:57;99056.13;;;15.11;100.00
5238;BME280;2639;49.700;7.962;2022-10-16T20:01:06;99068.94;;;15.09;100.00
5238;BME280;2639;49.700;7.962;2022-10-16T20:04:16;99059.91;;;15.03;100.00
5238;BME280;2639;49.700;7.962;2022-10-16T20:07:27;99053.75;;;15.01;100.00
5238;BME280;2639;49.700;7.962;2022-10-16T20:10:48;99062.31;;;15.00;100.00
5238;BME280;2639;49.700;7.962;2022-10-16T20:13:59;99065.69;;;14.99;100.00
5238;BME280;2639;49.700;7.962;2022-10-16T20:17:09;99067.47;;;15.00;100.00
5238;BME280;2639;49.700;7.962;2022-10-16T20:20:22;99071.38;;;14.93;100.00
5238;BME280;2639;49.700;7.962;2022-10-16T20:23:33;99062.63;;;14.91;100.00
5238;BME280;2639;49.700;7.962;2022-10-16T20:26:42;99070.28;;;14.89;100.00
5238;BME280;2639;49.700;7.962;2022-10-16T20:29:55;99073.66;;;14.88;100.00
5238;BME280;2639;49.700;7.962;2022-10-16T20:33:06;99074.38;;;14.86;100.00
5238;BME280;2639;49.700;7.962;2022-10-16T20:36:17;99081.72;;;14.80;100.00
5238;BME280;2639;49.700;7.962;2022-10-16T20:39:28;99077.25;;;14.77;100.00
5238;BME280;2639;49.700;7.962;2022-10-16T20:42:40;99080.66;;;14.76;100.00
5238;BME280;2639;49.700;7.962;2022-10-16T20:45:58;99079.66;;;14.74;100.00
5238;BME280;2639;49.700;7.962;2022-10-16T20:49:07;99082.84;;;14.70;100.00
5238;BME280;2639;49.700;7.962;2022-10-16T20:52:40;99079.38;;;14.69;100.00
5238;BME280;2639;49.700;7.962;2022-10-16T20:55:51;99079.06;;;14.65;100.00
5238;BME280;2639;49.700;7.962;2022-10-16T20:59:03;99089.00;;;14.59;100.00
5238;BME280;2639;49.700;7.962;2022-10-16T21:02:13;99083.66;;;14.56;100.00
5238;BME280;2639;49.700;7.962;2022-10-16T21:05:25;99093.72;;;14.52;100.00
5238;BME280;2639;49.700;7.962;2022-10-16T21:08:38;99086.50;;;14.47;100.00
5238;BME280;2639;49.700;7.962;2022-10-16T21:11:50;99096.72;;;14.45;100.00
5238;BME280;2639;49.700;7.962;2022-10-16T21:15:00;99099.13;;;14.42;100.00
5238;BME280;2639;49.700;7.962;2022-10-16T21:18:22;99098.81;;;14.38;100.00
5238;BME280;2639;49.700;7.962;2022-10-16T21:21:36;99097.81;;;14.36;100.00
5238;BME280;2639;49.700;7.962;2022-10-16T21:24:46;99101.09;;;14.33;100.00
5238;BME280;2639;49.700;7.962;2022-10-16T21:27:57;99102.69;;;14.31;100.00
